Time;durP1;ratioP1;P1;durP2;ratioP2;P2;SDS_P1;SDS_P2;PMS_P1;PMS_P2;Temp;Humidity;BMP_temperature;BMP_pressure;BME280_temperature;BME280_humidity;BME280_pressure;Samples;Min_cycle;Max_cycle;Signal;HPM_P1;HPM_P2
2023/06/04 00:01:38;;;;;;;;;;;;;;;;;;4999017;28;19921;-61
2023/06/04 00:04:06;;;;;;;;;;;;;;;;;;5015640;28;19975;-60
2023/06/04 00:06:32;;;;;;;;;;;;;;;;;;5000085;28;19920;-61
2023/06/04 00:08:57;;;;;;;;;;;;;;;;;;5014296;28;20503;-60
2023/06/04 00:11:26;;;;;;;;;;;;;;;;;;5018017;28;20292;-60
2023/06/04 00:13:54;;;;;;;;;;;;;;;;;;4998898;28;20011;-60
2023/06/04 00:16:19;;;;;;;;;;;;;;;;;;5015993;28;19917;-59
2023/06/04 00:18:44;;;;;;;;;;;;;;;;;;5000122;28;19928;-58
2023/06/04 00:21:09;;;;;;;;;;;;;;;;;;5014881;28;20069;-58
2023/06/04 00:23:35;;;;;;;;;;;;;;;;;;5016056;28;19924;-61
2023/06/04 00:26:00;;;;;;;;;;;;;;;;;;5013564;28;19950;-60
2023/06/04 00:28:25;;;;;;;;;;;;;;;;;;4999740;28;19928;-61
2023/06/04 00:30:53;;;;;;;;;;;;;;;;;;5017542;28;19924;-60
2023/06/04 00:33:18;;;;;;;;;;;;;;;;;;5018659;28;20405;-60
2023/06/04 00:35:44;;;;;;;;;;;;;;;;;;5017802;28;20012;-60
2023/06/04 00:38:10;;;;;;;;;;;;;;;;;;5015924;28;20384;-60
2023/06/04 00:40:35;;;;;;;;;;;;;;;;;;5013299;28;19916;-60
2023/06/04 00:43:03;;;;;;;;;;;;;;;;;;5014998;28;19970;-61
2023/06/04 00:45:30;;;;;;;;;;;;;;;;;;5004545;28;19976;-60
2023/06/04 00:47:58;;;;;;;;;;;;;;;;;;5035165;28;20027;-60
2023/06/04 00:50:26;;;;;;;;;;;;;;;;;;5018923;28;19924;-61
2023/06/04 00:52:54;;;;;;;;;;;;;;;;;;5016780;28;19963;-61
2023/06/04 00:55:22;;;;;;;;;;;;;;;;;;5037200;28;19931;-60
2023/06/04 00:57:47;;;;;;;;;;;;;;;;;;5016813;28;19917;-60
2023/06/04 01:00:12;;;;;;;;;;;;;;;;;;5034841;28;19974;-61
2023/06/04 01:02:40;;;;;;;;;;;;;;;;;;5015758;28;19999;-61
2023/06/04 01:05:08;;;;;;;;;;;;;;;;;;5015528;28;19996;-60
2023/06/04 01:07:33;;;;;;;;;;;;;;;;;;5017433;28;20400;-60
2023/06/04 01:09:58;;;;;;;;;;;;;;;;;;5031244;28;19971;-60
2023/06/04 01:12:24;;;;;;;;;;;;;;;;;;5017961;28;19966;-60
2023/06/04 01:14:52;;;;;;;;;;;;;;;;;;5000618;28;20046;-60
2023/06/04 01:17:17;;;;;;;;;;;;;;;;;;5017860;28;20027;-60
2023/06/04 01:19:51;;;;;;;;;;;;;;;;;;5036583;28;20320;-60
2023/06/04 01:22:23;;;;;;;;;;;;;;;;;;5015475;28;20014;-60
2023/06/04 01:24:48;;;;;;;;;;;;;;;;;;5035228;28;19976;-60
2023/06/04 01:27:15;;;;;;;;;;;;;;;;;;4998749;28;19921;-60
2023/06/04 01:29:41;;;;;;;;;;;;;;;;;;5017818;28;20387;-60
2023/06/04 01:32:11;;;;;;;;;;;;;;;;;;5012627;28;20791;-61
2023/06/04 01:34:37;;;;;;;;;;;;;;;;;;5001175;28;20402;-60
2023/06/04 01:37:05;;;;;;;;;;;;;;;;;;5018130;28;19921;-60
2023/06/04 01:39:32;;;;;;;;;;;;;;;;;;5010373;28;19927;-61
2023/06/04 01:41:57;;;;;;;;;;;;;;;;;;5034656;28;20295;-61
2023/06/04 01:44:23;;;;;;;;;;;;;;;;;;5029387;28;20027;-61
2023/06/04 01:46:48;;;;;;;;;;;;;;;;;;5016084;28;20383;-61
2023/06/04 01:49:13;;;;;;;;;;;;;;;;;;5035219;28;19956;-61
2023/06/04 01:51:41;;;;;;;;;;;;;;;;;;5033705;28;20088;-60
2023/06/04 01:54:09;;;;;;;;;;;;;;;;;;5015317;28;20211;-61
2023/06/04 01:56:34;;;;;;;;;;;;;;;;;;5035240;28;19983;-61
2023/06/04 01:59:02;;;;;;;;;;;;;;;;;;5000859;28;19982;-60
2023/06/04 02:01:29;;;;;;;;;;;;;;;;;;5034350;28;19921;-61
2023/06/04 02:03:55;;;;;;;;;;;;;;;;;;5035442;28;19921;-60
2023/06/04 02:06:20;;;;;;;;;;;;;;;;;;5014596;28;19927;-60
2023/06/04 02:08:45;;;;;;;;;;;;;;;;;;5015139;28;20565;-60
2023/06/04 02:11:10;;;;;;;;;;;;;;;;;;5015089;28;19920;-61
2023/06/04 02:13:38;;;;;;;;;;;;;;;;;;5035211;28;19920;-61
2023/06/04 02:16:04;;;;;;;;;;;;;;;;;;5028836;28;19921;-60
2023/06/04 02:18:29;;;;;;;;;;;;;;;;;;5014653;28;20301;-61
2023/06/04 02:20:54;;;;;;;;;;;;;;;;;;5035474;28;19927;-60
2023/06/04 02:23:22;;;;;;;;;;;;;;;;;;5016554;28;19947;-61
2023/06/04 02:25:51;;;;;;;;;;;;;;;;;;5015955;28;20036;-58
2023/06/04 02:28:16;;;;;;;;;;;;;;;;;;5032502;28;19920;-61
2023/06/04 02:30:44;;;;;;;;;;;;;;;;;;5012049;28;20409;-59
2023/06/04 02:33:09;;;;;;;;;;;;;;;;;;5001088;28;19917;-61
2023/06/04 02:35:35;;;;;;;;;;;;;;;;;;5019878;28;20561;-59
2023/06/04 02:38:00;;;;;;;;;;;;;;;;;;5019844;28;20016;-59
2023/06/04 02:40:28;;;;;;;;;;;;;;;;;;5035748;28;19989;-59
2023/06/04 02:42:56;;;;;;;;;;;;;;;;;;5016479;28;20365;-59
2023/06/04 02:45:21;;;;;;;;;;;;;;;;;;5018497;28;20605;-59
2023/06/04 02:47:51;;;;;;;;;;;;;;;;;;5018354;28;19917;-59
2023/06/04 02:50:16;;;;;;;;;;;;;;;;;;5039115;28;20218;-62
2023/06/04 02:52:47;;;;;;;;;;;;;;;;;;5022920;28;19967;-59
2023/06/04 02:55:18;;;;;;;;;;;;;;;;;;5033787;28;19928;-59
2023/06/04 02:57:43;;;;;;;;;;;;;;;;;;5000774;28;20042;-59
2023/06/04 03:00:12;;;;;;;;;;;;;;;;;;5036384;28;19920;-60
2023/06/04 03:02:40;;;;;;;;;;;;;;;;;;5034468;28;20524;-60
2023/06/04 03:05:07;;;;;;;;;;;;;;;;;;5004479;28;19917;-59
2023/06/04 03:07:33;;;;;;;;;;;;;;;;;;5019876;28;19978;-60
2023/06/04 03:09:58;;;;;;;;;;;;;;;;;;5017596;28;19925;-59
2023/06/04 03:12:23;;;;;;;;;;;;;;;;;;5016403;28;19921;-59
2023/06/04 03:14:51;;;;;;;;;;;;;;;;;;5016689;28;20223;-59
2023/06/04 03:17:16;;;;;;;;;;;;;;;;;;5038041;28;19926;-60
2023/06/04 03:19:44;;;;;;;;;;;;;;;;;;5033543;28;19927;-59
2023/06/04 03:22:10;;;;;;;;;;;;;;;;;;5018522;28;19920;-60
2023/06/04 03:24:38;;;;;;;;;;;;;;;;;;5015196;28;20066;-60
2023/06/04 03:27:07;;;;;;;;;;;;;;;;;;5037115;28;19938;-60
2023/06/04 03:29:35;;;;;;;;;;;;;;;;;;5019415;28;20358;-60
2023/06/04 03:32:00;;;;;;;;;;;;;;;;;;5001827;28;20059;-60
2023/06/04 03:34:31;;;;;;;;;;;;;;;;;;5038896;28;19927;-60
2023/06/04 03:36:56;;;;;;;;;;;;;;;;;;5018778;28;20247;-60
2023/06/04 03:39:23;;;;;;;;;;;;;;;;;;5036811;28;19921;-60
2023/06/04 03:41:49;;;;;;;;;;;;;;;;;;5013000;28;20019;-60
2023/06/04 03:44:14;;;;;;;;;;;;;;;;;;5032868;28;19923;-59
2023/06/04 03:46:40;;;;;;;;;;;;;;;;;;5016349;28;20074;-59
2023/06/04 03:49:05;;;;;;;;;;;;;;;;;;5017603;28;19921;-59
2023/06/04 03:51:32;;;;;;;;;;;;;;;;;;5033996;28;20759;-62
2023/06/04 03:53:58;;;;;;;;;;;;;;;;;;5019714;28;19971;-61
2023/06/04 03:56:26;;;;;;;;;;;;;;;;;;5019625;28;19928;-60
2023/06/04 03:58:52;;;;;;;;;;;;;;;;;;5018854;28;19948;-60
2023/06/04 04:01:18;;;;;;;;;;;;;;;;;;5034300;28;19921;-60
2023/06/04 04:03:43;;;;;;;;;;;;;;;;;;5016839;28;19924;-59
2023/06/04 04:06:08;;;;;;;;;;;;;;;;;;5018743;28;19920;-60
2023/06/04 04:08:34;;;;;;;;;;;;;;;;;;5034424;28;20300;-60
2023/06/04 04:10:59;;;;;;;;;;;;;;;;;;5035219;28;20073;-60
2023/06/04 04:13:24;;;;;;;;;;;;;;;;;;5037158;28;20442;-59
2023/06/04 04:15:52;;;;;;;;;;;;;;;;;;5037169;28;20609;-59
2023/06/04 04:18:19;;;;;;;;;;;;;;;;;;5014296;28;19928;-60
2023/06/04 04:20:47;;;;;;;;;;;;;;;;;;5017801;28;20093;-60
2023/06/04 04:23:33;;;;;;;;;;;;;;;;;;5036720;28;20187;-60
2023/06/04 04:26:02;;;;;;;;;;;;;;;;;;4999805;28;19936;-60
2023/06/04 04:28:28;;;;;;;;;;;;;;;;;;5017007;28;20898;-60
2023/06/04 04:30:56;;;;;;;;;;;;;;;;;;5011054;28;19924;-60
2023/06/04 04:33:24;;;;;;;;;;;;;;;;;;5033334;28;19921;-59
2023/06/04 04:35:50;;;;;;;;;;;;;;;;;;5035970;28;19921;-59
2023/06/04 04:38:17;;;;;;;;;;;;;;;;;;5002527;28;21892;-60
2023/06/04 04:40:42;;;;;;;;;;;;;;;;;;5017358;28;19917;-60
2023/06/04 04:43:10;;;;;;;;;;;;;;;;;;5014380;28;19994;-60
2023/06/04 04:45:37;;;;;;;;;;;;;;;;;;5034333;28;19916;-60
2023/06/04 04:48:05;;;;;;;;;;;;;;;;;;4999942;28;19917;-60
2023/06/04 04:50:31;;;;;;;;;;;;;;;;;;5035497;28;19933;-60
2023/06/04 04:52:59;;;;;;;;;;;;;;;;;;5015033;28;20128;-60
2023/06/04 04:55:27;;;;;;;;;;;;;;;;;;5016404;28;19936;-59
2023/06/04 04:57:55;;;;;;;;;;;;;;;;;;5016229;28;20063;-59
2023/06/04 05:00:23;;;;;;;;;;;;;;;;;;5000683;28;19920;-60
2023/06/04 05:02:51;;;;;;;;;;;;;;;;;;5002112;28;19948;-60
2023/06/04 05:05:19;;;;;;;;;;;;;;;;;;5016681;28;19928;-61
2023/06/04 05:07:44;;;;;;;;;;;;;;;;;;5017074;28;20348;-61
2023/06/04 05:10:12;;;;;;;;;;;;;;;;;;5014285;28;20323;-60
2023/06/04 05:12:38;;;;;;;;;;;;;;;;;;5032013;28;19921;-60
2023/06/04 05:15:05;;;;;;;;;;;;;;;;;;5033338;28;19917;-60
2023/06/04 05:17:31;;;;;;;;;;;;;;;;;;5017016;28;20360;-60
2023/06/04 05:20:11;;;;;;;;;;;;;;;;;;5034114;28;19970;-60
2023/06/04 05:22:36;;;;;;;;;;;;;;;;;;5032039;28;19928;-60
2023/06/04 05:25:02;;;;;;;;;;;;;;;;;;5031545;28;21084;-61
2023/06/04 05:27:31;;;;;;;;;;;;;;;;;;5036155;28;20395;-60
2023/06/04 05:30:02;;;;;;;;;;;;;;;;;;5017088;28;19998;-60
2023/06/04 05:32:30;;;;;;;;;;;;;;;;;;5032541;28;19927;-60
2023/06/04 05:38:18;;;;;;;;;;;;;;;;;;5030176;28;20698;-59
2023/06/04 05:40:43;;;;;;;;;;;;;;;;;;4987337;28;19925;-60
2023/06/04 05:43:08;;;;;;;;;;;;;;;;;;5001685;28;19970;-61
2023/06/04 05:45:34;;;;;;;;;;;;;;;;;;5016828;28;19920;-62
2023/06/04 05:48:02;;;;;;;;;;;;;;;;;;5000945;28;19951;-63
2023/06/04 05:50:30;;;;;;;;;;;;;;;;;;5030847;28;19937;-61
2023/06/04 05:52:55;;;;;;;;;;;;;;;;;;5014475;28;19928;-60
2023/06/04 05:55:22;;;;;;;;;;;;;;;;;;5014207;28;19920;-60
2023/06/04 05:57:48;;;;;;;;;;;;;;;;;;5033195;28;19917;-60
2023/06/04 06:00:13;;;;;;;;;;;;;;;;;;5015240;28;19923;-59
2023/06/04 06:02:38;;;;;;;;;;;;;;;;;;5015351;28;21494;-61
2023/06/04 06:05:04;;;;;;;;;;;;;;;;;;5001014;28;19920;-61
2023/06/04 06:07:29;;;;;;;;;;;;;;;;;;5015985;28;19921;-61
2023/06/04 06:09:57;;;;;;;;;;;;;;;;;;5021395;28;20029;-61
2023/06/04 06:12:25;;;;;;;;;;;;;;;;;;5037118;28;20015;-61
2023/06/04 06:14:53;;;;;;;;;;;;;;;;;;5002973;28;19963;-60
2023/06/04 06:17:18;;;;;;;;;;;;;;;;;;5018923;28;19974;-60
2023/06/04 06:19:46;;;;;;;;;;;;;;;;;;5020244;28;19920;-59
2023/06/04 06:22:15;;;;;;;;;;;;;;;;;;5000089;28;19919;-60
2023/06/04 06:27:56;;;;;;;;;;;;;;;;;;5032080;28;19928;-59
2023/06/04 06:33:40;;;;;;;;;;;;;;;;;;5038924;28;21852;-59
2023/06/04 06:36:11;;;;;;;;;;;;;;;;;;5038344;28;19960;-59
2023/06/04 06:38:36;;;;;;;;;;;;;;;;;;5019975;28;19927;-59
2023/06/04 06:41:01;;;;;;;;;;;;;;;;;;5033207;28;20060;-59
2023/06/04 06:43:27;;;;;;;;;;;;;;;;;;5035393;28;19917;-59
2023/06/04 06:45:55;;;;;;;;;;;;;;;;;;5017875;28;19921;-60
2023/06/04 06:48:22;;;;;;;;;;;;;;;;;;4999453;28;19924;-60
2023/06/04 06:50:50;;;;;;;;;;;;;;;;;;5019809;28;20427;-59
2023/06/04 06:53:16;;;;;;;;;;;;;;;;;;5018244;28;19974;-59
2023/06/04 06:55:46;;;;;;;;;;;;;;;;;;5033198;28;19923;-59
2023/06/04 06:58:17;;;;;;;;;;;;;;;;;;5019146;28;20128;-59
2023/06/04 07:00:45;;;;;;;;;;;;;;;;;;5017829;28;19990;-59
2023/06/04 07:03:10;;;;;;;;;;;;;;;;;;5018995;28;20077;-60
2023/06/04 07:05:36;;;;;;;;;;;;;;;;;;5017707;28;20095;-59
2023/06/04 07:08:03;;;;;;;;;;;;;;;;;;5017991;28;20735;-60
2023/06/04 07:10:29;;;;;;;;;;;;;;;;;;5031046;28;19931;-59
2023/06/04 07:12:57;;;;;;;;;;;;;;;;;;5018851;28;19993;-59
2023/06/04 07:15:27;;;;;;;;;;;;;;;;;;5020017;28;19921;-59
2023/06/04 07:17:52;;;;;;;;;;;;;;;;;;5021084;28;19926;-62
2023/06/04 07:20:20;;;;;;;;;;;;;;;;;;5019037;28;20567;-59
2023/06/04 07:22:45;;;;;;;;;;;;;;;;;;5032051;28;19978;-59
2023/06/04 07:25:13;;;;;;;;;;;;;;;;;;5017994;28;19921;-60
2023/06/04 07:27:38;;;;;;;;;;;;;;;;;;5017493;28;20418;-59
2023/06/04 07:30:06;;;;;;;;;;;;;;;;;;5019237;28;19948;-59
2023/06/04 07:32:36;;;;;;;;;;;;;;;;;;5017932;28;20008;-59
2023/06/04 07:35:04;;;;;;;;;;;;;;;;;;5036547;28;19921;-59
2023/06/04 07:37:30;;;;;;;;;;;;;;;;;;5016302;28;20283;-59
2023/06/04 07:39:58;;;;;;;;;;;;;;;;;;5003437;28;19931;-60
2023/06/04 07:42:23;;;;;;;;;;;;;;;;;;5016393;28;19921;-59
2023/06/04 07:44:48;;;;;;;;;;;;;;;;;;5018312;28;19920;-60
2023/06/04 07:47:18;;;;;;;;;;;;;;;;;;5016766;28;20549;-59
2023/06/04 07:53:02;;;;;;;;;;;;;;;;;;5031980;28;20459;-60
2023/06/04 07:55:31;;;;;;;;;;;;;;;;;;5019920;28;19928;-60
2023/06/04 07:57:57;;;;;;;;;;;;;;;;;;5016791;28;19936;-60
2023/06/04 08:00:22;;;;;;;;;;;;;;;;;;5033737;28;19921;-59
2023/06/04 08:02:48;;;;;;;;;;;;;;;;;;5019133;28;20372;-59
2023/06/04 08:05:13;;;;;;;;;;;;;;;;;;5015495;28;19940;-60
2023/06/04 08:07:41;;;;;;;;;;;;;;;;;;5032419;28;20004;-59
2023/06/04 08:10:07;;;;;;;;;;;;;;;;;;4999613;28;19936;-60
2023/06/04 08:12:38;;;;;;;;;;;;;;;;;;5016541;28;20337;-59
2023/06/04 08:15:08;;;;;;;;;;;;;;;;;;5033326;28;20410;-60
2023/06/04 08:17:36;;;;;;;;;;;;;;;;;;5004184;28;20042;-59
2023/06/04 08:20:01;;;;;;;;;;;;;;;;;;5001915;28;20011;-59
2023/06/04 08:22:27;;;;;;;;;;;;;;;;;;5036081;28;19927;-59
2023/06/04 08:24:58;;;;;;;;;;;;;;;;;;5018337;28;20870;-60
2023/06/04 08:27:25;;;;;;;;;;;;;;;;;;5033971;28;19917;-60
2023/06/04 08:29:54;;;;;;;;;;;;;;;;;;5028085;28;19920;-60
2023/06/04 08:32:26;;;;;;;;;;;;;;;;;;5026960;28;19921;-59
2023/06/04 08:34:52;;;;;;;;;;;;;;;;;;5016504;28;19926;-59
2023/06/04 08:37:20;;;;;;;;;;;;;;;;;;5033688;28;20007;-60
2023/06/04 08:39:48;;;;;;;;;;;;;;;;;;5035226;28;20086;-59
2023/06/04 08:42:20;;;;;;;;;;;;;;;;;;4999826;28;19958;-60
2023/06/04 08:44:45;;;;;;;;;;;;;;;;;;5035241;28;19921;-59
2023/06/04 08:49:53;;;;;;;;;;;;;;;;;;5007571;23;19940;-59
2023/06/04 08:52:21;;;;;;;;;;;;;;;;;;4951054;28;20373;-58
2023/06/04 08:54:51;;;;;;;;;;;;;;;;;;4968649;28;20569;-59
2023/06/04 08:57:21;;;;;;;;;;;;;;;;;;4969458;28;19932;-60
2023/06/04 08:59:49;;;;;;;;;;;;;;;;;;4970094;28;19937;-59
2023/06/04 09:02:16;;;;;;;;;;;;;;;;;;4970031;28;19929;-60
2023/06/04 09:04:45;;;;;;;;;;;;;;;;;;4952870;28;20016;-59
2023/06/04 09:07:10;;;;;;;;;;;;;;;;;;4952909;28;20189;-60
2023/06/04 09:09:38;;;;;;;;;;;;;;;;;;4935408;28;19928;-59
2023/06/04 09:12:04;;;;;;;;;;;;;;;;;;4936035;28;20346;-60
2023/06/04 09:14:30;;;;;;;;;;;;;;;;;;4951277;28;19928;-60
2023/06/04 09:16:58;;;;;;;;;;;;;;;;;;4950906;28;19921;-60
2023/06/04 09:19:24;;;;;;;;;;;;;;;;;;4953341;28;20293;-59
2023/06/04 09:21:51;;;;;;;;;;;;;;;;;;4968857;28;20205;-60
2023/06/04 09:24:19;;;;;;;;;;;;;;;;;;4967862;28;20708;-60
2023/06/04 09:26:46;;;;;;;;;;;;;;;;;;4936141;28;19917;-60
2023/06/04 09:29:17;;;;;;;;;;;;;;;;;;4952870;28;19929;-60
2023/06/04 09:31:42;;;;;;;;;;;;;;;;;;4951617;28;20305;-62
2023/06/04 09:34:10;;;;;;;;;;;;;;;;;;4953467;28;19929;-60
2023/06/04 09:36:36;;;;;;;;;;;;;;;;;;4950518;28;19922;-60
2023/06/04 09:39:02;;;;;;;;;;;;;;;;;;4935440;28;19929;-61
2023/06/04 09:41:30;;;;;;;;;;;;;;;;;;4967790;28;20704;-60
2023/06/04 09:43:58;;;;;;;;;;;;;;;;;;4951920;28;20032;-60
2023/06/04 09:46:23;;;;;;;;;;;;;;;;;;4969948;28;19922;-60
2023/06/04 09:48:48;;;;;;;;;;;;;;;;;;4926918;28;20017;-60
2023/06/04 09:51:19;;;;;;;;;;;;;;;;;;4908606;28;19926;-58
2023/06/04 09:53:47;;;;;;;;;;;;;;;;;;4927148;28;19922;-60
2023/06/04 09:56:14;;;;;;;;;;;;;;;;;;4924859;28;19974;-60
2023/06/04 09:58:42;;;;;;;;;;;;;;;;;;4926646;28;19930;-59
2023/06/04 10:01:11;;;;;;;;;;;;;;;;;;4927520;28;19969;-60
2023/06/04 10:03:36;;;;;;;;;;;;;;;;;;4926698;28;19966;-60
2023/06/04 10:06:04;;;;;;;;;;;;;;;;;;4924133;28;19998;-59
2023/06/04 10:08:30;;;;;;;;;;;;;;;;;;4908119;28;19918;-59
2023/06/04 10:10:55;;;;;;;;;;;;;;;;;;4935051;28;19926;-60
2023/06/04 10:13:21;;;;;;;;;;;;;;;;;;4927962;28;19918;-59
2023/06/04 10:15:46;;;;;;;;;;;;;;;;;;4925518;28;20005;-59
2023/06/04 10:18:11;;;;;;;;;;;;;;;;;;4927189;28;20444;-60
2023/06/04 10:20:36;;;;;;;;;;;;;;;;;;4927946;28;19926;-60
2023/06/04 10:23:04;;;;;;;;;;;;;;;;;;4926763;28;20389;-60
2023/06/04 10:25:30;;;;;;;;;;;;;;;;;;4928089;28;19929;-60
2023/06/04 10:27:55;;;;;;;;;;;;;;;;;;4927660;28;19915;-63
2023/06/04 10:30:23;;;;;;;;;;;;;;;;;;4926927;28;19932;-59
2023/06/04 10:32:51;;;;;;;;;;;;;;;;;;4927615;28;20216;-61
2023/06/04 10:35:16;;;;;;;;;;;;;;;;;;4909809;28;20277;-59
2023/06/04 10:37:42;;;;;;;;;;;;;;;;;;4926656;28;19970;-58
2023/06/04 10:40:09;;;;;;;;;;;;;;;;;;4922683;28;19929;-59
2023/06/04 10:42:34;;;;;;;;;;;;;;;;;;4924675;28;20444;-59
2023/06/04 10:45:02;;;;;;;;;;;;;;;;;;4922104;28;19930;-59
2023/06/04 10:47:30;;;;;;;;;;;;;;;;;;4925651;28;19923;-59
2023/06/04 10:49:55;;;;;;;;;;;;;;;;;;4944536;28;19927;-59
2023/06/04 10:52:23;;;;;;;;;;;;;;;;;;4947453;28;19933;-59
2023/06/04 10:54:49;;;;;;;;;;;;;;;;;;4944461;28;19919;-59
2023/06/04 10:57:15;;;;;;;;;;;;;;;;;;4937982;28;20098;-59
2023/06/04 10:59:40;;;;;;;;;;;;;;;;;;4929784;28;19933;-59
2023/06/04 11:02:06;;;;;;;;;;;;;;;;;;4930865;28;19945;-58
2023/06/04 11:04:31;;;;;;;;;;;;;;;;;;4945049;28;20005;-59
2023/06/04 11:07:03;;;;;;;;;;;;;;;;;;4942626;28;19954;-59
2023/06/04 11:09:31;;;;;;;;;;;;;;;;;;4956997;28;20014;-60
2023/06/04 11:11:59;;;;;;;;;;;;;;;;;;4942675;28;20109;-60
2023/06/04 11:14:24;;;;;;;;;;;;;;;;;;4948891;28;19926;-59
2023/06/04 11:16:49;;;;;;;;;;;;;;;;;;4946345;28;19923;-59
2023/06/04 11:19:15;;;;;;;;;;;;;;;;;;4948595;28;19933;-59
2023/06/04 11:21:42;;;;;;;;;;;;;;;;;;4946942;28;19992;-59
2023/06/04 11:24:10;;;;;;;;;;;;;;;;;;4948974;28;19922;-60
2023/06/04 11:26:38;;;;;;;;;;;;;;;;;;4947831;28;19932;-59
2023/06/04 11:29:06;;;;;;;;;;;;;;;;;;4949597;28;19940;-60
2023/06/04 11:31:32;;;;;;;;;;;;;;;;;;4948063;28;19918;-60
2023/06/04 11:34:02;;;;;;;;;;;;;;;;;;4947468;28;19941;-60
2023/06/04 11:36:27;;;;;;;;;;;;;;;;;;4947703;28;19922;-60
2023/06/04 11:38:58;;;;;;;;;;;;;;;;;;4947140;28;20680;-60
2023/06/04 11:41:23;;;;;;;;;;;;;;;;;;4949887;28;19976;-62
2023/06/04 11:43:51;;;;;;;;;;;;;;;;;;4948831;28;19925;-61
2023/06/04 11:46:16;;;;;;;;;;;;;;;;;;4947689;28;19922;-61
2023/06/04 11:48:42;;;;;;;;;;;;;;;;;;4927676;28;20016;-60
2023/06/04 11:51:10;;;;;;;;;;;;;;;;;;4930342;28;20594;-61
2023/06/04 11:53:35;;;;;;;;;;;;;;;;;;4928822;28;20059;-61
2023/06/04 11:56:01;;;;;;;;;;;;;;;;;;4926687;28;20077;-61
2023/06/04 11:58:26;;;;;;;;;;;;;;;;;;4913589;28;19933;-61
2023/06/04 12:00:51;;;;;;;;;;;;;;;;;;4910158;28;20001;-61
2023/06/04 12:03:16;;;;;;;;;;;;;;;;;;4930509;28;20068;-60
2023/06/04 12:05:42;;;;;;;;;;;;;;;;;;4927724;28;20162;-60
2023/06/04 12:08:11;;;;;;;;;;;;;;;;;;4928895;28;19918;-60
2023/06/04 12:10:36;;;;;;;;;;;;;;;;;;4926688;28;20008;-60
2023/06/04 12:13:01;;;;;;;;;;;;;;;;;;4926851;28;19918;-60
2023/06/04 12:15:26;;;;;;;;;;;;;;;;;;4928658;28;20009;-60
2023/06/04 12:17:54;;;;;;;;;;;;;;;;;;4929865;28;19926;-60
2023/06/04 12:20:24;;;;;;;;;;;;;;;;;;4927179;28;20127;-60
2023/06/04 12:22:52;;;;;;;;;;;;;;;;;;4914315;28;19949;-60
2023/06/04 12:25:17;;;;;;;;;;;;;;;;;;4928572;28;19922;-60
2023/06/04 12:27:45;;;;;;;;;;;;;;;;;;4928873;28;19918;-60
2023/06/04 12:30:11;;;;;;;;;;;;;;;;;;4928411;28;19922;-60
2023/06/04 12:32:42;;;;;;;;;;;;;;;;;;4909602;28;19998;-59
2023/06/04 12:35:07;;;;;;;;;;;;;;;;;;4928280;28;19942;-60
2023/06/04 12:37:34;;;;;;;;;;;;;;;;;;4927419;28;19923;-60
2023/06/04 12:39:59;;;;;;;;;;;;;;;;;;4927044;28;20325;-59
2023/06/04 12:42:27;;;;;;;;;;;;;;;;;;4938495;28;19929;-60
2023/06/04 12:44:53;;;;;;;;;;;;;;;;;;4910181;29;20443;-61
2023/06/04 12:47:21;;;;;;;;;;;;;;;;;;4928346;28;20028;-60
2023/06/04 12:49:46;;;;;;;;;;;;;;;;;;4943987;28;19948;-59
2023/06/04 12:52:13;;;;;;;;;;;;;;;;;;4950174;28;19926;-61
2023/06/04 12:54:39;;;;;;;;;;;;;;;;;;4949047;28;19925;-61
2023/06/04 12:57:04;;;;;;;;;;;;;;;;;;4950523;28;20013;-60
2023/06/04 12:59:29;;;;;;;;;;;;;;;;;;4950062;28;20013;-61
2023/06/04 13:01:57;;;;;;;;;;;;;;;;;;4952026;28;19918;-61
2023/06/04 13:04:23;;;;;;;;;;;;;;;;;;4952208;28;19922;-60
2023/06/04 13:06:48;;;;;;;;;;;;;;;;;;4949172;28;20706;-59
2023/06/04 13:09:14;;;;;;;;;;;;;;;;;;4947184;28;19928;-60
2023/06/04 13:11:39;;;;;;;;;;;;;;;;;;4950463;28;19941;-59
2023/06/04 13:14:07;;;;;;;;;;;;;;;;;;4940968;28;19956;-60
2023/06/04 13:16:32;;;;;;;;;;;;;;;;;;4948316;28;19922;-61
2023/06/04 13:18:58;;;;;;;;;;;;;;;;;;4949891;28;20001;-60
2023/06/04 13:21:23;;;;;;;;;;;;;;;;;;4949697;28;19928;-61
2023/06/04 13:23:49;;;;;;;;;;;;;;;;;;4950097;28;19925;-60
2023/06/04 13:26:15;;;;;;;;;;;;;;;;;;4949699;28;19949;-60
2023/06/04 13:28:40;;;;;;;;;;;;;;;;;;4948270;28;20096;-61
2023/06/04 13:31:05;;;;;;;;;;;;;;;;;;4950233;28;19930;-61
2023/06/04 13:33:34;;;;;;;;;;;;;;;;;;4949094;28;20416;-61
2023/06/04 13:35:59;;;;;;;;;;;;;;;;;;4951751;28;19918;-60
2023/06/04 13:38:24;;;;;;;;;;;;;;;;;;4946328;28;19918;-61
2023/06/04 13:40:50;;;;;;;;;;;;;;;;;;4932060;28;20487;-60
2023/06/04 13:43:15;;;;;;;;;;;;;;;;;;4948701;28;20013;-60
2023/06/04 13:45:45;;;;;;;;;;;;;;;;;;4950687;28;20008;-61
2023/06/04 13:48:11;;;;;;;;;;;;;;;;;;4952895;28;20060;-61
2023/06/04 13:50:36;;;;;;;;;;;;;;;;;;4949808;28;20642;-60
2023/06/04 13:53:01;;;;;;;;;;;;;;;;;;4949076;28;19996;-60
2023/06/04 13:55:32;;;;;;;;;;;;;;;;;;4948564;28;19918;-60
2023/06/04 13:58:00;;;;;;;;;;;;;;;;;;4951481;28;20102;-60
2023/06/04 14:00:25;;;;;;;;;;;;;;;;;;4965160;28;19926;-59
2023/06/04 14:02:51;;;;;;;;;;;;;;;;;;4949609;28;20072;-60
2023/06/04 14:05:17;;;;;;;;;;;;;;;;;;4953013;28;20340;-60
2023/06/04 14:07:43;;;;;;;;;;;;;;;;;;4948985;28;19929;-60
2023/06/04 14:10:08;;;;;;;;;;;;;;;;;;4950194;28;20253;-60
2023/06/04 14:12:38;;;;;;;;;;;;;;;;;;4965116;28;19925;-60
2023/06/04 14:15:03;;;;;;;;;;;;;;;;;;4952237;28;19922;-59
2023/06/04 14:17:30;;;;;;;;;;;;;;;;;;4952843;28;20437;-60
2023/06/04 14:19:57;;;;;;;;;;;;;;;;;;4965365;28;19981;-60
2023/06/04 14:22:25;;;;;;;;;;;;;;;;;;4949348;28;19949;-60
2023/06/04 14:24:50;;;;;;;;;;;;;;;;;;4949595;28;20004;-60
2023/06/04 14:27:16;;;;;;;;;;;;;;;;;;4965995;28;20001;-63
2023/06/04 14:29:41;;;;;;;;;;;;;;;;;;4948663;28;19925;-59
2023/06/04 14:32:06;;;;;;;;;;;;;;;;;;4968538;28;20338;-59
2023/06/04 14:34:32;;;;;;;;;;;;;;;;;;4931466;28;19976;-61
2023/06/04 14:36:59;;;;;;;;;;;;;;;;;;4933717;28;19922;-61
2023/06/04 14:39:24;;;;;;;;;;;;;;;;;;4937604;28;20361;-61
2023/06/04 14:41:52;;;;;;;;;;;;;;;;;;4954338;28;20668;-61
2023/06/04 14:44:20;;;;;;;;;;;;;;;;;;4955285;28;19921;-59
2023/06/04 14:46:45;;;;;;;;;;;;;;;;;;4953819;28;19967;-60
2023/06/04 14:49:11;;;;;;;;;;;;;;;;;;4944755;28;19929;-61
2023/06/04 14:51:36;;;;;;;;;;;;;;;;;;4936133;28;19949;-60
2023/06/04 14:54:04;;;;;;;;;;;;;;;;;;4952337;28;19917;-60
2023/06/04 14:56:30;;;;;;;;;;;;;;;;;;4936513;28;19922;-59
2023/06/04 14:58:58;;;;;;;;;;;;;;;;;;4951164;28;19922;-60
2023/06/04 15:01:26;;;;;;;;;;;;;;;;;;4932230;28;20009;-59
2023/06/04 15:03:51;;;;;;;;;;;;;;;;;;4936628;28;20021;-61
2023/06/04 15:06:16;;;;;;;;;;;;;;;;;;4936541;28;19918;-59
2023/06/04 15:08:42;;;;;;;;;;;;;;;;;;4968493;28;20023;-59
2023/06/04 15:11:07;;;;;;;;;;;;;;;;;;4967530;28;19926;-60
2023/06/04 15:13:32;;;;;;;;;;;;;;;;;;4968404;28;20082;-60
2023/06/04 15:16:02;;;;;;;;;;;;;;;;;;4967183;28;19929;-59
2023/06/04 15:18:27;;;;;;;;;;;;;;;;;;4968953;28;19952;-60
2023/06/04 15:20:52;;;;;;;;;;;;;;;;;;4949604;28;19926;-60
2023/06/04 15:23:17;;;;;;;;;;;;;;;;;;4968419;28;19925;-61
2023/06/04 15:25:43;;;;;;;;;;;;;;;;;;4936568;28;20444;-59
2023/06/04 15:28:11;;;;;;;;;;;;;;;;;;4954391;28;19927;-60
2023/06/04 15:30:39;;;;;;;;;;;;;;;;;;4955677;28;19925;-59
2023/06/04 15:33:07;;;;;;;;;;;;;;;;;;4952426;28;20304;-58
2023/06/04 15:35:35;;;;;;;;;;;;;;;;;;4953497;28;19922;-58
2023/06/04 15:38:01;;;;;;;;;;;;;;;;;;4953894;28;20385;-59
2023/06/04 15:40:28;;;;;;;;;;;;;;;;;;4967350;28;19925;-59
2023/06/04 15:42:53;;;;;;;;;;;;;;;;;;4950677;28;19995;-59
2023/06/04 15:45:21;;;;;;;;;;;;;;;;;;4967173;28;19921;-61
2023/06/04 15:47:49;;;;;;;;;;;;;;;;;;4951121;28;19918;-60
2023/06/04 15:50:19;;;;;;;;;;;;;;;;;;4946603;28;20089;-61
2023/06/04 15:52:45;;;;;;;;;;;;;;;;;;4947893;28;20647;-59
2023/06/04 15:55:10;;;;;;;;;;;;;;;;;;4948378;28;20079;-60
2023/06/04 15:57:40;;;;;;;;;;;;;;;;;;4946867;28;19933;-59
2023/06/04 16:00:09;;;;;;;;;;;;;;;;;;4924814;28;19937;-59
2023/06/04 16:02:37;;;;;;;;;;;;;;;;;;4945748;28;20000;-59
2023/06/04 16:05:02;;;;;;;;;;;;;;;;;;4945685;28;19918;-60
2023/06/04 16:07:29;;;;;;;;;;;;;;;;;;4923618;28;20278;-59
2023/06/04 16:09:55;;;;;;;;;;;;;;;;;;4949088;28;20406;-60
2023/06/04 16:12:20;;;;;;;;;;;;;;;;;;4947008;28;21543;-59
2023/06/04 16:14:45;;;;;;;;;;;;;;;;;;4946381;28;19922;-59
2023/06/04 16:17:13;;;;;;;;;;;;;;;;;;4945737;28;19925;-58
2023/06/04 16:19:41;;;;;;;;;;;;;;;;;;4942180;28;19933;-59
2023/06/04 16:22:06;;;;;;;;;;;;;;;;;;4947203;28;19922;-58
2023/06/04 16:24:31;;;;;;;;;;;;;;;;;;4945262;28;20317;-60
2023/06/04 16:26:56;;;;;;;;;;;;;;;;;;4945900;28;19977;-61
2023/06/04 16:29:22;;;;;;;;;;;;;;;;;;4949115;28;20017;-61
2023/06/04 16:31:50;;;;;;;;;;;;;;;;;;4947443;28;20037;-59
2023/06/04 16:34:15;;;;;;;;;;;;;;;;;;4945968;28;19922;-58
2023/06/04 16:36:43;;;;;;;;;;;;;;;;;;4945829;28;19929;-59
2023/06/04 16:39:08;;;;;;;;;;;;;;;;;;4945067;28;20093;-59
2023/06/04 16:41:34;;;;;;;;;;;;;;;;;;4947139;28;19926;-59
2023/06/04 16:44:02;;;;;;;;;;;;;;;;;;4960131;28;19932;-58
2023/06/04 16:46:27;;;;;;;;;;;;;;;;;;4945120;28;19917;-60
2023/06/04 16:48:52;;;;;;;;;;;;;;;;;;4929442;28;20363;-59
2023/06/04 16:51:20;;;;;;;;;;;;;;;;;;4941005;28;19918;-59
2023/06/04 16:53:47;;;;;;;;;;;;;;;;;;4952401;28;19918;-59
2023/06/04 16:56:13;;;;;;;;;;;;;;;;;;4946562;28;20362;-59
2023/06/04 16:58:39;;;;;;;;;;;;;;;;;;4950194;28;19928;-59